Terminal Aerodrome Forecast
Issued by NWS Wichita, KS

Home | Current Version | Previous Version | Text Only | Print | Product List | Glossary On
Versions: 1 2 3 4 5 6 7 8 9 10 11 12 13 14 15
000
FTUS43 KICT 241720
TAFICT
TAF
KICT 241720Z 2418/2518 33021G28KT P6SM BKN025
     FM241900 33021G29KT P6SM BKN035
     FM250000 33018KT P6SM BKN100
     FM250400 34013KT P6SM SCT200
     FM250900 33009KT P6SM SCT250=

USA.gov is the U.S. government's official web portal to all federal, state and local government web resources and services.